createdAt,value
2019-05-11T00:00:47.599Z,97870.33
2019-05-11T00:02:58.470Z,97866.55
2019-05-11T00:05:09.410Z,97866.21
2019-05-11T00:07:20.294Z,97862.19
2019-05-11T00:09:31.270Z,97853.46
2019-05-11T00:11:42.219Z,97840.92
2019-05-11T00:13:53.091Z,97832.17
2019-05-11T00:16:03.924Z,97824.62
2019-05-11T00:18:14.925Z,97826.41
2019-05-11T00:20:25.747Z,97825.25
2019-05-11T00:22:36.605Z,97823.61
2019-05-11T00:24:49.509Z,97828.98
2019-05-11T00:27:00.423Z,97830.38
2019-05-11T00:29:11.261Z,97821.00
2019-05-11T00:31:22.125Z,97825.30
2019-05-11T00:33:32.955Z,97824.08
2019-05-11T00:35:43.817Z,97816.92
2019-05-11T00:37:54.652Z,97803.87
2019-05-11T00:40:14.012Z,97799.00
2019-05-11T00:42:18.472Z,97779.97
2019-05-11T00:44:29.368Z,97760.45
2019-05-11T00:46:40.200Z,97767.42
2019-05-11T00:48:51.036Z,97769.16
2019-05-11T00:51:02.092Z,97769.13
2019-05-11T00:53:13.103Z,97767.37
2019-05-11T00:55:24.073Z,97768.06
2019-05-11T00:57:34.916Z,97777.61
2019-05-11T00:59:45.850Z,97777.95
2019-05-11T01:01:56.722Z,97772.28
2019-05-11T01:04:07.573Z,97766.38
2019-05-11T01:06:18.441Z,97755.88
2019-05-11T01:08:29.271Z,97762.27
2019-05-11T01:10:42.554Z,97745.61
2019-05-11T01:12:52.863Z,97736.76
2019-05-11T01:15:04.296Z,97735.81
2019-05-11T01:17:15.168Z,97731.64
2019-05-11T01:19:26.112Z,97716.16
2019-05-11T01:21:36.972Z,97717.42
2019-05-11T01:23:47.813Z,97719.89
2019-05-11T01:25:58.680Z,97720.24
2019-05-11T01:28:09.537Z,97718.02
2019-05-11T01:30:20.384Z,97710.09
2019-05-11T01:32:31.239Z,97710.34
2019-05-11T01:34:42.099Z,97710.83
2019-05-11T01:36:52.980Z,97701.46
2019-05-11T01:39:05.232Z,97694.61
2019-05-11T01:41:16.294Z,97699.47
2019-05-11T01:43:27.267Z,97694.22
2019-05-11T01:45:38.109Z,97694.83
2019-05-11T01:47:48.994Z,97689.24
2019-05-11T01:49:59.924Z,97676.61
2019-05-11T01:52:10.792Z,97676.14
2019-05-11T01:54:21.751Z,97667.41
2019-05-11T01:56:32.596Z,97664.20
2019-05-11T01:58:43.438Z,97661.73
2019-05-11T02:00:54.298Z,97670.27
2019-05-11T02:03:05.265Z,97674.30
2019-05-11T02:05:28.679Z,97671.47
2019-05-11T02:07:39.709Z,97670.17
2019-05-11T02:09:50.693Z,97664.74
2019-05-11T02:12:01.638Z,97669.47
2019-05-11T02:14:12.484Z,97662.02
2019-05-11T02:16:23.340Z,97661.64
2019-05-11T02:18:34.215Z,97656.91
2019-05-11T02:20:45.177Z,97655.28
2019-05-11T02:22:56.149Z,97656.45
2019-05-11T02:25:07.979Z,97663.81
2019-05-11T02:27:18.950Z,97657.91
2019-05-11T02:29:29.921Z,97658.83
2019-05-11T02:31:40.899Z,97659.21
2019-05-11T02:33:51.746Z,97660.86
2019-05-11T02:36:02.703Z,97654.35
2019-05-11T02:38:13.554Z,97651.87
2019-05-11T02:40:24.708Z,97648.69
2019-05-11T02:42:35.812Z,97644.91
2019-05-11T02:44:46.666Z,97649.04
2019-05-11T02:46:57.625Z,97649.38
2019-05-11T02:49:08.476Z,97649.52
2019-05-11T02:51:19.619Z,97642.66
2019-05-11T02:53:34.091Z,97629.41
2019-05-11T02:55:45.763Z,97619.34
2019-05-11T02:57:56.601Z,97621.23
2019-05-11T03:00:08.656Z,97607.40
2019-05-11T03:02:19.487Z,97609.88
2019-05-11T03:04:30.384Z,97617.56
2019-05-11T03:06:41.217Z,97610.23
2019-05-11T03:08:52.211Z,97606.66
2019-05-11T03:11:03.026Z,97602.90
2019-05-11T03:13:13.979Z,97608.09
2019-05-11T03:15:24.841Z,97601.95
2019-05-11T03:17:35.658Z,97606.58
2019-05-11T03:19:46.611Z,97604.19
2019-05-11T03:21:57.465Z,97605.01
2019-05-11T03:24:08.386Z,97595.90
2019-05-11T03:26:19.255Z,97591.53
2019-05-11T03:28:30.079Z,97592.59
2019-05-11T03:30:41.105Z,97596.38
2019-05-11T03:32:51.997Z,97585.86
2019-05-11T03:35:03.645Z,97587.50
2019-05-11T03:37:14.500Z,97581.81
2019-05-11T03:39:25.335Z,97584.90
2019-05-11T03:41:36.185Z,97584.19
2019-05-11T03:43:47.019Z,97586.20
2019-05-11T03:45:57.872Z,97579.91
2019-05-11T03:48:08.710Z,97594.14
2019-05-11T03:50:19.665Z,97589.17
2019-05-11T03:52:30.522Z,97596.85
2019-05-11T03:54:41.370Z,97593.08
2019-05-11T03:56:52.216Z,97596.96
2019-05-11T03:59:03.073Z,97597.78
2019-05-11T04:01:13.963Z,97589.05
2019-05-11T04:03:24.794Z,97595.42
2019-05-11T04:05:35.631Z,97591.28
2019-05-11T04:07:46.497Z,97593.75
2019-05-11T04:09:57.440Z,97590.56
2019-05-11T04:12:08.311Z,97587.83
2019-05-11T04:14:19.161Z,97581.10
2019-05-11T04:16:30.034Z,97580.48
2019-05-11T04:18:40.862Z,97577.75
2019-05-11T04:20:51.726Z,97573.26
2019-05-11T04:23:02.603Z,97575.49
2019-05-11T04:25:13.562Z,97574.33
2019-05-11T04:27:24.420Z,97575.25
2019-05-11T04:29:35.254Z,97577.27
2019-05-11T04:31:46.225Z,97572.41
2019-05-11T04:33:57.070Z,97572.03
2019-05-11T04:36:08.003Z,97573.81
2019-05-11T04:38:18.869Z,97573.26
2019-05-11T04:40:30.088Z,97575.63
2019-05-11T04:42:54.093Z,97576.93
2019-05-11T04:44:53.662Z,97588.52
2019-05-11T04:47:04.535Z,97584.86
2019-05-11T04:49:15.377Z,97583.55
2019-05-11T04:51:26.201Z,97589.11
2019-05-11T04:53:37.074Z,97587.08
2019-05-11T04:55:47.902Z,97591.44
2019-05-11T04:57:58.748Z,97572.22
2019-05-11T05:00:10.184Z,97575.17
2019-05-11T05:02:21.847Z,97579.66
2019-05-11T05:04:32.857Z,97576.08
2019-05-11T05:06:47.760Z,97575.88
2019-05-11T05:08:58.087Z,97581.53
2019-05-11T05:11:09.359Z,97587.81
2019-05-11T05:13:23.452Z,97590.42
2019-05-11T05:15:33.029Z,97586.74
2019-05-11T05:17:43.902Z,97573.31
2019-05-11T05:19:54.766Z,97581.14
2019-05-11T05:22:05.600Z,97581.00
2019-05-11T05:24:16.473Z,97585.86
2019-05-11T05:26:27.524Z,97583.70
2019-05-11T05:28:38.411Z,97587.52
2019-05-11T05:30:49.261Z,97591.77
2019-05-11T05:33:00.122Z,97595.77
2019-05-11T05:35:11.183Z,97598.75
2019-05-11T05:37:22.014Z,97600.50
2019-05-11T05:39:32.868Z,97602.22
2019-05-11T05:41:56.187Z,97607.42
2019-05-11T05:43:56.467Z,97604.28
2019-05-11T05:46:07.304Z,97606.98
2019-05-11T05:48:18.201Z,97607.47
2019-05-11T05:50:29.146Z,97603.07
2019-05-11T05:52:39.998Z,97594.16
2019-05-11T05:54:50.851Z,97590.59
2019-05-11T05:57:01.853Z,97602.56
2019-05-11T05:59:12.746Z,97600.50
2019-05-11T06:01:23.633Z,97609.11
2019-05-11T06:03:34.459Z,97616.73
2019-05-11T06:05:45.388Z,97624.83
2019-05-11T06:07:56.267Z,97628.52
2019-05-11T06:10:07.345Z,97632.93
2019-05-11T06:12:18.295Z,97632.59
2019-05-11T06:14:29.153Z,97637.81
2019-05-11T06:16:39.993Z,97638.44
2019-05-11T06:18:50.940Z,97637.58
2019-05-11T06:21:01.814Z,97640.48
2019-05-11T06:23:12.761Z,97632.41
2019-05-11T06:25:23.722Z,97638.36
2019-05-11T06:27:34.662Z,97647.16
2019-05-11T06:29:45.583Z,97642.04
2019-05-11T06:31:56.476Z,97640.05
2019-05-11T06:34:07.318Z,97642.76
2019-05-11T06:36:18.185Z,97645.84
2019-05-11T06:38:29.024Z,97646.78
2019-05-11T06:40:39.872Z,97642.76
2019-05-11T06:42:50.831Z,97645.46
2019-05-11T06:45:03.331Z,97649.77
2019-05-11T06:47:14.160Z,97648.45
2019-05-11T06:49:25.003Z,97642.14
2019-05-11T06:51:39.807Z,97641.88
2019-05-11T06:53:48.594Z,97636.58
2019-05-11T06:55:59.552Z,97638.84
2019-05-11T06:58:10.416Z,97642.53
2019-05-11T07:00:21.472Z,97637.77
2019-05-11T07:02:32.579Z,97638.91
2019-05-11T07:04:43.481Z,97632.88
2019-05-11T07:06:54.444Z,97626.64
2019-05-11T07:09:06.398Z,97626.62
2019-05-11T07:11:17.267Z,97624.66
2019-05-11T07:13:28.124Z,97626.40
2019-05-11T07:15:38.973Z,97629.06
2019-05-11T07:17:49.867Z,97631.52
2019-05-11T07:20:00.714Z,97626.38
2019-05-11T07:22:11.595Z,97620.47
2019-05-11T07:24:22.543Z,97627.20
2019-05-11T07:26:33.499Z,97641.59
2019-05-11T07:28:44.475Z,97639.47
2019-05-11T07:30:55.339Z,97644.59
2019-05-11T07:33:08.105Z,97647.81
2019-05-11T07:35:18.975Z,97651.74
2019-05-11T07:37:29.935Z,97654.15
2019-05-11T07:39:41.030Z,97666.84
2019-05-11T07:41:51.876Z,97667.50
2019-05-11T07:44:02.825Z,97656.02
2019-05-11T07:46:13.765Z,97655.02
2019-05-11T07:48:24.750Z,97653.31
2019-05-11T07:50:35.593Z,97643.55
2019-05-11T07:52:48.296Z,97645.80
2019-05-11T07:54:59.249Z,97643.61
2019-05-11T07:57:10.158Z,97641.08
2019-05-11T07:59:21.018Z,97644.89
2019-05-11T08:01:31.862Z,97640.28
2019-05-11T08:03:42.850Z,97640.17
2019-05-11T08:05:53.967Z,97638.36
2019-05-11T08:08:04.933Z,97638.36
2019-05-11T08:10:18.396Z,97634.83
2019-05-11T08:12:28.838Z,97631.13
2019-05-11T08:14:56.631Z,97632.30
2019-05-11T08:16:53.313Z,97630.73
2019-05-11T08:19:07.072Z,97628.53
2019-05-11T08:21:17.821Z,97627.20
2019-05-11T08:23:29.006Z,97628.23
2019-05-11T08:25:39.872Z,97623.47
2019-05-11T08:27:50.730Z,97625.61
2019-05-11T08:30:01.843Z,97631.37
2019-05-11T08:32:12.782Z,97621.52
2019-05-11T08:34:23.748Z,97620.36
2019-05-11T08:36:34.698Z,97627.51
2019-05-11T08:38:48.098Z,97629.42
2019-05-11T08:40:59.157Z,97637.35
2019-05-11T08:43:10.303Z,97639.81
2019-05-11T08:45:24.751Z,97636.05
2019-05-11T08:47:34.046Z,97641.58
2019-05-11T08:49:45.050Z,97638.63
2019-05-11T08:51:57.828Z,97646.10
2019-05-11T08:54:09.195Z,97642.44
2019-05-11T08:56:20.145Z,97647.00
2019-05-11T08:58:30.978Z,97655.00
2019-05-11T09:00:41.971Z,97657.13
2019-05-11T09:02:52.913Z,97661.66
2019-05-11T09:05:05.165Z,97671.52
2019-05-11T09:07:18.263Z,97664.30
2019-05-11T09:09:28.972Z,97668.67
2019-05-11T09:11:39.914Z,97665.23
2019-05-11T09:13:50.783Z,97659.38
2019-05-11T09:16:01.634Z,97653.56
2019-05-11T09:18:12.482Z,97657.22
2019-05-11T09:20:23.346Z,97667.77
2019-05-11T09:22:34.313Z,97666.09
2019-05-11T09:24:47.605Z,97674.75
2019-05-11T09:26:58.693Z,97673.70
2019-05-11T09:29:09.664Z,97685.58
2019-05-11T09:31:20.544Z,97697.08
2019-05-11T09:33:31.679Z,97691.44
2019-05-11T09:35:50.089Z,97708.59
2019-05-11T09:37:55.338Z,97708.59
2019-05-11T09:40:07.863Z,97712.70
2019-05-11T09:42:18.884Z,97707.91
2019-05-11T09:44:29.748Z,97703.05
2019-05-11T09:46:40.719Z,97687.59
2019-05-11T09:48:51.815Z,97693.83
2019-05-11T09:51:02.773Z,97689.80
2019-05-11T09:53:13.632Z,97691.16
2019-05-11T09:55:24.474Z,97677.63
2019-05-11T09:57:35.343Z,97686.55
2019-05-11T09:59:47.767Z,97690.84
2019-05-11T10:01:59.120Z,97698.38
2019-05-11T10:04:10.220Z,97682.86
2019-05-11T10:06:21.571Z,97687.52
2019-05-11T10:08:32.549Z,97705.52
2019-05-11T10:10:43.739Z,97707.64
2019-05-11T10:12:54.614Z,97718.55
2019-05-11T10:15:08.393Z,97703.18
2019-05-11T10:17:19.639Z,97707.79
2019-05-11T10:19:30.624Z,97707.30
2019-05-11T10:21:41.479Z,97701.89
2019-05-11T10:23:52.372Z,97696.70
2019-05-11T10:26:03.248Z,97688.44
2019-05-11T10:28:17.895Z,97694.91
2019-05-11T10:30:28.800Z,97689.66
2019-05-11T10:32:40.551Z,97689.34
2019-05-11T10:34:51.456Z,97687.23
2019-05-11T10:37:02.400Z,97679.61
2019-05-11T10:39:13.301Z,97688.48
2019-05-11T10:41:24.151Z,97692.75
2019-05-11T10:43:35.024Z,97696.84
2019-05-11T10:45:48.186Z,97697.70
2019-05-11T10:48:01.123Z,97699.79
2019-05-11T10:50:12.073Z,97700.27
2019-05-11T10:52:22.923Z,97703.77
2019-05-11T10:54:34.004Z,97705.81
2019-05-11T10:56:44.883Z,97703.16
2019-05-11T10:58:58.734Z,97703.24
2019-05-11T11:01:09.665Z,97703.24
2019-05-11T11:03:20.555Z,97710.24
2019-05-11T11:05:31.528Z,97697.57
2019-05-11T11:07:42.371Z,97698.56
2019-05-11T11:09:53.259Z,97692.80
2019-05-11T11:12:04.272Z,97694.45
2019-05-11T11:14:15.113Z,97709.95
2019-05-11T11:16:36.839Z,97713.23
2019-05-11T11:18:38.762Z,97701.38
2019-05-11T11:20:49.725Z,97703.66
2019-05-11T11:23:00.579Z,97710.28
2019-05-11T11:25:11.829Z,97697.78
2019-05-11T11:27:22.697Z,97712.91
2019-05-11T11:29:33.560Z,97712.24
2019-05-11T11:31:44.429Z,97712.70
2019-05-11T11:33:58.258Z,97721.06
2019-05-11T11:36:08.629Z,97713.97
2019-05-11T11:38:19.512Z,97718.78
2019-05-11T11:40:31.309Z,97710.25
2019-05-11T11:42:42.167Z,97712.89
2019-05-11T11:44:53.006Z,97711.39
2019-05-11T11:47:03.880Z,97724.92
2019-05-11T11:49:18.799Z,97724.75
2019-05-11T11:51:29.639Z,97721.79
2019-05-11T11:53:40.603Z,97729.02
2019-05-11T11:55:51.561Z,97726.38
2019-05-11T11:58:02.565Z,97733.59
2019-05-11T12:00:13.706Z,97734.27
2019-05-11T12:02:24.580Z,97732.91
2019-05-11T12:04:35.426Z,97736.17
2019-05-11T12:06:46.281Z,97735.14
2019-05-11T12:08:58.506Z,97745.92
2019-05-11T12:11:09.614Z,97731.30
2019-05-11T12:13:20.538Z,97740.34
2019-05-11T12:15:31.636Z,97742.45
2019-05-11T12:17:42.516Z,97740.03
2019-05-11T12:19:53.370Z,97738.67
2019-05-11T12:22:04.447Z,97737.36
2019-05-11T12:24:15.587Z,97736.41
2019-05-11T12:26:28.208Z,97734.14
2019-05-11T12:28:39.223Z,97738.85
2019-05-11T12:30:50.213Z,97733.09
2019-05-11T12:33:01.445Z,97738.18
2019-05-11T12:35:12.540Z,97729.13
2019-05-11T12:37:23.561Z,97722.98
2019-05-11T12:39:34.467Z,97733.54
2019-05-11T12:41:45.342Z,97734.86
2019-05-11T12:43:57.774Z,97731.76
2019-05-11T12:46:08.874Z,97722.05
2019-05-11T12:48:19.954Z,97716.47
2019-05-11T12:50:30.842Z,97709.89
2019-05-11T12:52:41.787Z,97714.52
2019-05-11T12:54:52.648Z,97712.56
2019-05-11T12:57:03.702Z,97708.63
2019-05-11T12:59:14.685Z,97693.31
2019-05-11T13:01:25.629Z,97673.88
2019-05-11T13:03:38.606Z,97676.31
2019-05-11T13:05:49.325Z,97667.59
2019-05-11T13:08:00.172Z,97669.41
2019-05-11T13:10:12.158Z,97671.23
2019-05-11T13:12:23.112Z,97678.95
2019-05-11T13:14:33.991Z,97681.56
2019-05-11T13:16:44.841Z,97688.83
2019-05-11T13:18:57.547Z,97699.90
2019-05-11T13:21:08.537Z,97699.42
2019-05-11T13:23:19.486Z,97711.59
2019-05-11T13:25:30.373Z,97693.83
2019-05-11T13:27:41.212Z,97707.32
2019-05-11T13:29:52.069Z,97707.83
2019-05-11T13:32:02.934Z,97706.69
2019-05-11T13:34:13.772Z,97696.09
2019-05-11T13:36:24.771Z,97703.02
2019-05-11T13:38:35.733Z,97688.30
2019-05-11T13:40:48.806Z,97713.47
2019-05-11T13:42:59.444Z,97725.80
2019-05-11T13:45:10.925Z,97762.25
2019-05-11T13:47:21.809Z,97783.48
2019-05-11T13:49:32.820Z,97792.41
2019-05-11T13:51:43.731Z,97807.44
2019-05-11T13:53:54.826Z,97810.31
2019-05-11T13:56:07.775Z,97829.52
2019-05-11T13:58:19.861Z,97845.34
2019-05-11T14:00:31.044Z,97840.75
2019-05-11T14:02:42.018Z,97840.11
2019-05-11T14:04:53.059Z,97847.25
2019-05-11T14:07:04.034Z,97848.53
2019-05-11T14:09:15.006Z,97847.71
2019-05-11T14:11:28.485Z,97847.54
2019-05-11T14:13:39.137Z,97844.88
2019-05-11T14:15:50.042Z,97848.28
2019-05-11T14:18:07.760Z,97842.96
2019-05-11T14:20:13.927Z,97851.30
2019-05-11T14:22:24.881Z,97847.56
2019-05-11T14:24:37.632Z,97837.77
2019-05-11T14:26:48.983Z,97842.95
2019-05-11T14:28:59.883Z,97841.88
2019-05-11T14:31:10.821Z,97845.50
2019-05-11T14:33:21.720Z,97847.21
2019-05-11T14:35:32.670Z,97846.09
2019-05-11T14:37:43.561Z,97860.05
2019-05-11T14:39:54.393Z,97866.91
2019-05-11T14:42:07.545Z,97883.38
2019-05-11T14:44:18.351Z,97900.83
2019-05-11T14:46:29.334Z,97950.89
2019-05-11T14:48:40.268Z,97973.03
2019-05-11T14:50:51.216Z,97990.30
2019-05-11T14:53:02.212Z,98000.95
2019-05-11T14:55:13.262Z,98014.63
2019-05-11T14:57:24.110Z,98031.42
2019-05-11T14:59:35.070Z,98034.58
2019-05-11T15:01:48.784Z,98029.95
2019-05-11T15:03:58.936Z,98026.84
2019-05-11T15:06:09.751Z,98032.51
2019-05-11T15:08:20.749Z,98022.08
2019-05-11T15:10:31.711Z,98009.33
2019-05-11T15:12:42.683Z,98005.27
2019-05-11T15:14:53.677Z,97996.52
2019-05-11T15:17:04.523Z,97985.38
2019-05-11T15:19:15.396Z,97973.91
2019-05-11T15:21:28.086Z,97963.45
2019-05-11T15:23:38.999Z,97965.37
2019-05-11T15:25:49.990Z,97974.27
2019-05-11T15:28:00.930Z,97973.56
2019-05-11T15:30:13.701Z,97971.91
2019-05-11T15:32:24.565Z,97978.20
2019-05-11T15:34:35.426Z,97981.77
2019-05-11T15:36:48.808Z,97981.98
2019-05-11T15:38:59.156Z,97980.30
2019-05-11T15:41:10.125Z,97998.01
2019-05-11T15:43:20.977Z,98012.97
2019-05-11T15:45:32.093Z,98022.48
2019-05-11T15:47:43.146Z,98021.89
2019-05-11T15:49:54.022Z,98029.61
2019-05-11T15:52:04.976Z,98031.77
2019-05-11T15:54:18.347Z,98042.80
2019-05-11T15:56:28.849Z,98051.22
2019-05-11T15:58:39.791Z,98053.72
2019-05-11T16:00:50.661Z,98061.44
2019-05-11T16:03:01.494Z,98065.34
2019-05-11T16:05:12.523Z,98064.88
2019-05-11T16:07:23.395Z,98066.20
2019-05-11T16:09:34.340Z,98066.90
2019-05-11T16:11:47.738Z,98065.81
2019-05-11T16:13:58.624Z,98064.14
2019-05-11T16:16:09.688Z,98046.93
2019-05-11T16:18:20.567Z,98032.91
2019-05-11T16:20:31.576Z,98042.04
2019-05-11T16:22:42.467Z,98046.47
2019-05-11T16:24:53.339Z,98051.34
2019-05-11T16:27:04.321Z,98061.58
2019-05-11T16:29:15.183Z,98068.92
2019-05-11T16:31:28.296Z,98076.98
2019-05-11T16:33:38.861Z,98064.76
2019-05-11T16:35:49.808Z,98070.11
2019-05-11T16:38:00.761Z,98071.30
2019-05-11T16:40:11.849Z,98078.07
2019-05-11T16:42:22.803Z,98078.54
2019-05-11T16:44:33.651Z,98092.91
2019-05-11T16:46:44.534Z,98104.27
2019-05-11T16:48:57.763Z,98109.33
2019-05-11T16:51:08.769Z,98115.92
2019-05-11T16:53:19.813Z,98123.16
2019-05-11T16:55:30.853Z,98120.26
2019-05-11T16:57:41.944Z,98107.00
2019-05-11T16:59:52.900Z,98106.94
2019-05-11T17:02:03.853Z,98118.18
2019-05-11T17:04:14.719Z,98119.45
2019-05-11T17:06:25.580Z,98131.88
2019-05-11T17:08:38.408Z,98143.94
2019-05-11T17:10:59.163Z,98155.20
2019-05-11T17:13:10.546Z,98164.22
2019-05-11T17:15:21.403Z,98176.25
2019-05-11T17:17:32.273Z,98181.88
2019-05-11T17:19:46.297Z,98176.14
2019-05-11T17:21:56.098Z,98190.05
2019-05-11T17:24:07.155Z,98192.23
2019-05-11T17:26:19.041Z,98205.04
2019-05-11T17:28:30.152Z,98210.52
2019-05-11T17:30:41.124Z,98214.94
2019-05-11T17:32:52.030Z,98213.91
2019-05-11T17:35:04.127Z,98220.77
2019-05-11T17:37:15.100Z,98232.09
2019-05-11T17:39:27.744Z,98244.49
2019-05-11T17:41:38.982Z,98256.21
2019-05-11T17:43:49.948Z,98272.20
2019-05-11T17:46:00.799Z,98272.55
2019-05-11T17:48:13.678Z,98274.72
2019-05-11T17:50:24.655Z,98288.38
2019-05-11T17:52:35.511Z,98283.92
2019-05-11T17:54:47.789Z,98294.53
2019-05-11T17:56:58.747Z,98288.02
2019-05-11T17:59:09.599Z,98298.55
2019-05-11T18:01:20.441Z,98308.14
2019-05-11T18:03:31.294Z,98314.45
2019-05-11T18:05:42.280Z,98325.18
2019-05-11T18:07:53.234Z,98328.53
2019-05-11T18:10:04.489Z,98325.98
2019-05-11T18:12:17.212Z,98327.80
2019-05-11T18:14:28.321Z,98334.14
2019-05-11T18:16:39.132Z,98338.41
2019-05-11T18:18:50.009Z,98352.84
2019-05-11T18:21:01.009Z,98352.38
2019-05-11T18:23:11.970Z,98358.89
2019-05-11T18:25:22.968Z,98356.86
2019-05-11T18:27:33.841Z,98363.73
2019-05-11T18:29:44.773Z,98373.12
2019-05-11T18:31:57.827Z,98381.62
2019-05-11T18:34:09.076Z,98383.03
2019-05-11T18:36:20.132Z,98387.19
2019-05-11T18:38:30.973Z,98393.33
2019-05-11T18:40:41.838Z,98397.80
2019-05-11T18:42:52.806Z,98415.72
2019-05-11T18:45:04.464Z,98416.19
2019-05-11T18:47:15.340Z,98421.74
2019-05-11T18:49:28.447Z,98432.91
2019-05-11T18:51:39.089Z,98433.73
2019-05-11T18:53:50.159Z,98438.00
2019-05-11T18:56:01.150Z,98450.88
2019-05-11T18:58:12.188Z,98454.13
2019-05-11T19:00:23.061Z,98458.12
2019-05-11T19:02:34.048Z,98466.39
2019-05-11T19:04:44.903Z,98469.63
2019-05-11T19:06:55.806Z,98472.70
2019-05-11T19:09:07.255Z,98485.41
2019-05-11T19:11:18.437Z,98486.77
2019-05-11T19:13:29.419Z,98496.25
2019-05-11T19:15:41.390Z,98499.28
2019-05-11T19:17:52.393Z,98503.84
2019-05-11T19:20:05.565Z,98506.87
2019-05-11T19:22:18.337Z,98514.41
2019-05-11T19:24:29.225Z,98525.17
2019-05-11T19:26:40.207Z,98524.81
2019-05-11T19:28:53.585Z,98531.94
2019-05-11T19:31:04.558Z,98533.31
2019-05-11T19:33:15.528Z,98545.56
2019-05-11T19:35:28.648Z,98545.96
2019-05-11T19:37:39.352Z,98550.59
2019-05-11T19:39:50.852Z,98561.71
2019-05-11T19:42:01.796Z,98562.45
2019-05-11T19:44:12.667Z,98571.01
2019-05-11T19:46:23.540Z,98578.87
2019-05-11T19:48:34.534Z,98586.86
2019-05-11T19:50:59.922Z,98587.91
2019-05-11T19:52:58.262Z,98586.41
2019-05-11T19:55:09.348Z,98590.08
2019-05-11T19:57:20.307Z,98590.71
2019-05-11T19:59:31.290Z,98595.39
2019-05-11T20:01:42.286Z,98598.15
2019-05-11T20:03:53.202Z,98609.90
2019-05-11T20:06:04.282Z,98614.61
2019-05-11T20:08:15.243Z,98620.17
2019-05-11T20:10:27.716Z,98628.68
2019-05-11T20:12:41.386Z,98633.12
2019-05-11T20:14:51.538Z,98639.53
2019-05-11T20:17:02.514Z,98648.25
2019-05-11T20:19:14.155Z,98654.73
2019-05-11T20:21:25.152Z,98667.25
2019-05-11T20:23:37.841Z,98667.19
2019-05-11T20:25:48.876Z,98676.48
2019-05-11T20:27:59.721Z,98678.19
2019-05-11T20:30:10.705Z,98680.84
2019-05-11T20:32:21.576Z,98686.25
2019-05-11T20:34:32.544Z,98693.69
2019-05-11T20:36:43.505Z,98701.94
2019-05-11T20:38:54.383Z,98708.58
2019-05-11T20:41:05.260Z,98706.41
2019-05-11T20:43:18.394Z,98703.23
2019-05-11T20:45:29.083Z,98702.38
2019-05-11T20:47:40.063Z,98705.89
2019-05-11T20:49:51.063Z,98711.92
2019-05-11T20:52:01.929Z,98708.95
2019-05-11T20:54:12.798Z,98712.39
2019-05-11T20:56:23.676Z,98709.80
2019-05-11T20:58:53.339Z,98715.88
2019-05-11T21:01:04.276Z,98708.42
2019-05-11T21:03:15.255Z,98719.44
2019-05-11T21:05:26.208Z,98724.89
2019-05-11T21:07:38.953Z,98723.13
2019-05-11T21:09:49.963Z,98727.31
2019-05-11T21:12:02.998Z,98732.03
2019-05-11T21:14:13.723Z,98732.03
2019-05-11T21:16:24.718Z,98739.04
2019-05-11T21:18:38.011Z,98737.37
2019-05-11T21:20:48.517Z,98741.09
2019-05-11T21:22:59.477Z,98740.39
2019-05-11T21:25:10.633Z,98742.30
2019-05-11T21:27:21.522Z,98756.19
2019-05-11T21:29:32.426Z,98760.91
2019-05-11T21:31:43.293Z,98767.34
2019-05-11T21:33:54.186Z,98761.70
2019-05-11T21:36:05.237Z,98775.82
2019-05-11T21:38:17.724Z,98778.32
2019-05-11T21:40:31.264Z,98785.46
2019-05-11T21:42:41.554Z,98788.84
2019-05-11T21:44:54.307Z,98792.35
2019-05-11T21:47:05.177Z,98802.32
2019-05-11T21:49:18.289Z,98805.45
2019-05-11T21:51:28.907Z,98811.80
2019-05-11T21:53:39.770Z,98816.99
2019-05-11T21:55:50.606Z,98825.05
2019-05-11T21:58:01.584Z,98827.40
2019-05-11T22:00:12.874Z,98830.56
2019-05-11T22:02:24.060Z,98831.29
2019-05-11T22:04:35.038Z,98836.34
2019-05-11T22:06:48.232Z,98836.77
2019-05-11T22:08:59.076Z,98846.98
2019-05-11T22:11:09.957Z,98850.92
2019-05-11T22:13:20.837Z,98855.69
2019-05-11T22:15:31.685Z,98858.30
2019-05-11T22:17:42.544Z,98869.67
2019-05-11T22:19:53.486Z,98872.67
2019-05-11T22:22:18.154Z,98879.28
2019-05-11T22:24:17.986Z,98881.04
2019-05-11T22:26:28.982Z,98888.87
2019-05-11T22:28:39.864Z,98887.87
2019-05-11T22:30:50.687Z,98903.47
2019-05-11T22:33:01.763Z,98902.72
2019-05-11T22:37:43.334Z,98905.56
2019-05-11T22:39:54.343Z,98911.46
2019-05-11T22:42:05.142Z,98910.67
2019-05-11T22:44:18.146Z,98917.16
2019-05-11T22:46:28.779Z,98917.16
2019-05-11T22:48:39.627Z,98928.19
2019-05-11T22:50:50.795Z,98931.16
2019-05-11T22:53:01.753Z,98927.86
2019-05-11T22:55:12.743Z,98938.34
2019-05-11T22:57:23.594Z,98939.84
2019-05-11T22:59:34.493Z,98944.91
2019-05-11T23:01:45.322Z,98947.95
2019-05-11T23:03:58.408Z,98951.56
2019-05-11T23:06:08.948Z,98952.86
2019-05-11T23:08:19.862Z,98951.44
2019-05-11T23:10:30.729Z,98957.78
2019-05-11T23:12:41.598Z,98955.86
2019-05-11T23:15:09.446Z,98952.43
2019-05-11T23:17:20.305Z,98956.16
2019-05-11T23:19:31.146Z,98956.03
2019-05-11T23:21:42.052Z,98966.27
2019-05-11T23:23:53.004Z,98966.27
2019-05-11T23:26:03.962Z,98961.22
2019-05-11T23:28:15.040Z,98968.11
2019-05-11T23:30:28.075Z,98967.52
2019-05-11T23:32:38.936Z,98976.19
2019-05-11T23:34:49.756Z,98977.56
2019-05-11T23:37:00.637Z,98974.75
2019-05-11T23:39:11.490Z,98972.12
2019-05-11T23:41:24.990Z,98972.95
2019-05-11T23:43:37.907Z,98975.88
2019-05-11T23:45:48.767Z,98979.52
2019-05-11T23:47:59.628Z,98980.66
2019-05-11T23:50:11.622Z,98980.98
2019-05-11T23:52:22.505Z,98986.74
2019-05-11T23:54:33.337Z,98980.00
2019-05-11T23:56:44.285Z,98986.11
2019-05-11T23:58:57.732Z,98989.98
